Terminal Aerodrome Forecast
Issued by NWS

Home | Current Version | Previous Version | Text Only | Print | Product List | Glossary On
Versions: 1 2 3 4 5 6 7 8 9 10 11 12 13 14 15 16 17 18 19 20
000
FTUS43 KMPX 142321
TAFRNH
TAF
KRNH 142321Z 1500/1524 16007KT 3SM -DZ BR OVC004
     FM150600 24006KT 1SM -DZ BR OVC003
      TEMPO 1506/1509 1/2SM FG OVC001
     FM151200 30010KT 6SM BR SCT007 OVC012
     FM151400 30014G22KT P6SM OVC015
     FM152000 30017G25KT P6SM BKN020=

USA.gov is the U.S. government's official web portal to all federal, state and local government web resources and services.